Ruby Airport
PARY : now visible

Airfield :











YOU CAN JOIN US ON...

 
LOGIN :

Register | Disclaimer

   EN    FR    IT 

 









Legend :    VFR   Marginal VFR   IFR   Intensive IFR   Very Intensive IFR
Visi :
Ceiling :
>= 8 km
>= 3000ft
5 to 8 km
1000 to 3000 ft
1500m to 5 km
500 to 1000 ft
800 to 1500m
200 to 500 ft
< 800m
< 200 ft
Symbols :   Thunderstorms  Fog  Heavy snow  Heavy precipitations  Wind > 20 kt






- Airport Elevation : 658 ft
- IATA code : RBY


PARY - Ruby

CURRENT METAR :
  • 210256Z AUTO 31004KT 10SM SCT060 BKN070 OVC090 M08/M11 A2891 RMK AO2 SLP807 T10831106 55002 FZRANO

EXPIRED METARs :
  • 210156Z AUTO 32004KT 10SM OVC090 M08/M11 A2891 RMK AO2 SLP806 T10781106 FZRANO
  • 210056Z AUTO 30005KT 10SM FEW060 OVC090 M07/M09 A2892 RMK AO2 SLP809 T10671094 FZRANO

TAF N/A



MET'MAP, your aeronautical weather chart ! - Copyright ORBIFLY December 2007 - Disclaimer

ORBIFLY MET'MAP TEAM :

Programming & Development : Alexandra Zaïnal
Concept & original design : Baudouin d'Aumeries
Assistance for programming : Marc-Olivier Méhu
Technical & hardware support : Manuel Goepfert

Contact : metmap@orbifly.com




SOURCES & CREDITS :

   NOAA       Earth
Advisory